sensor_id;sensor_type;location;lat;lon;timestamp;P1;durP1;ratioP1;P2;durP2;ratioP2
15699;SDS011;7950;42.744;23.174;2022-07-10T00:01:38;15.73;;;14.23;;
15699;SDS011;7950;42.744;23.174;2022-07-10T00:04:10;16.33;;;14.73;;
15699;SDS011;7950;42.744;23.174;2022-07-10T00:06:40;17.10;;;15.37;;
15699;SDS011;7950;42.744;23.174;2022-07-10T00:09:13;16.73;;;14.93;;
15699;SDS011;7950;42.744;23.174;2022-07-10T00:11:45;17.33;;;15.63;;
15699;SDS011;7950;42.744;23.174;2022-07-10T00:14:14;17.10;;;15.43;;
15699;SDS011;7950;42.744;23.174;2022-07-10T00:16:42;17.00;;;15.30;;
15699;SDS011;7950;42.744;23.174;2022-07-10T00:19:13;16.13;;;14.57;;
15699;SDS011;7950;42.744;23.174;2022-07-10T00:21:41;15.23;;;13.63;;
15699;SDS011;7950;42.744;23.174;2022-07-10T00:24:10;17.73;;;15.67;;
15699;SDS011;7950;42.744;23.174;2022-07-10T00:26:39;16.50;;;14.80;;
15699;SDS011;7950;42.744;23.174;2022-07-10T00:29:15;16.23;;;14.53;;
15699;SDS011;7950;42.744;23.174;2022-07-10T00:31:46;16.23;;;14.63;;
15699;SDS011;7950;42.744;23.174;2022-07-10T00:34:16;15.47;;;13.83;;
15699;SDS011;7950;42.744;23.174;2022-07-10T00:36:45;15.27;;;13.87;;
15699;SDS011;7950;42.744;23.174;2022-07-10T00:39:13;16.17;;;14.57;;
15699;SDS011;7950;42.744;23.174;2022-07-10T00:41:42;15.87;;;14.33;;
15699;SDS011;7950;42.744;23.174;2022-07-10T00:44:11;16.07;;;14.43;;
15699;SDS011;7950;42.744;23.174;2022-07-10T00:46:40;16.50;;;14.90;;
15699;SDS011;7950;42.744;23.174;2022-07-10T00:49:08;14.13;;;12.73;;
15699;SDS011;7950;42.744;23.174;2022-07-10T00:51:39;16.43;;;14.77;;
15699;SDS011;7950;42.744;23.174;2022-07-10T00:54:07;16.47;;;14.97;;
15699;SDS011;7950;42.744;23.174;2022-07-10T00:56:36;14.37;;;12.87;;
15699;SDS011;7950;42.744;23.174;2022-07-10T00:59:05;16.17;;;14.57;;
15699;SDS011;7950;42.744;23.174;2022-07-10T01:01:34;15.47;;;13.87;;
15699;SDS011;7950;42.744;23.174;2022-07-10T01:04:02;16.50;;;14.80;;
15699;SDS011;7950;42.744;23.174;2022-07-10T01:06:32;15.93;;;14.33;;
15699;SDS011;7950;42.744;23.174;2022-07-10T01:09:02;14.90;;;13.23;;
15699;SDS011;7950;42.744;23.174;2022-07-10T01:11:33;15.27;;;13.67;;
15699;SDS011;7950;42.744;23.174;2022-07-10T01:14:02;14.50;;;13.13;;
15699;SDS011;7950;42.744;23.174;2022-07-10T01:16:31;15.30;;;13.77;;
15699;SDS011;7950;42.744;23.174;2022-07-10T01:19:00;15.23;;;13.63;;
15699;SDS011;7950;42.744;23.174;2022-07-10T01:21:34;15.83;;;14.27;;
15699;SDS011;7950;42.744;23.174;2022-07-10T01:24:05;16.77;;;14.93;;
15699;SDS011;7950;42.744;23.174;2022-07-10T01:26:36;14.70;;;13.20;;
15699;SDS011;7950;42.744;23.174;2022-07-10T01:29:09;14.80;;;13.40;;
15699;SDS011;7950;42.744;23.174;2022-07-10T01:31:39;13.77;;;12.03;;
15699;SDS011;7950;42.744;23.174;2022-07-10T01:34:08;18.97;;;14.23;;
15699;SDS011;7950;42.744;23.174;2022-07-10T01:36:39;15.13;;;13.50;;
15699;SDS011;7950;42.744;23.174;2022-07-10T01:39:08;15.50;;;14.00;;
15699;SDS011;7950;42.744;23.174;2022-07-10T01:41:37;15.50;;;13.90;;
15699;SDS011;7950;42.744;23.174;2022-07-10T01:44:06;16.40;;;13.27;;
15699;SDS011;7950;42.744;23.174;2022-07-10T01:46:34;15.40;;;13.80;;
15699;SDS011;7950;42.744;23.174;2022-07-10T01:49:13;15.60;;;13.80;;
15699;SDS011;7950;42.744;23.174;2022-07-10T01:51:43;15.20;;;13.70;;
15699;SDS011;7950;42.744;23.174;2022-07-10T01:54:12;17.33;;;15.63;;
15699;SDS011;7950;42.744;23.174;2022-07-10T01:56:41;15.77;;;14.03;;
15699;SDS011;7950;42.744;23.174;2022-07-10T01:59:10;16.37;;;14.70;;
15699;SDS011;7950;42.744;23.174;2022-07-10T02:01:39;15.63;;;14.13;;
15699;SDS011;7950;42.744;23.174;2022-07-10T02:04:08;16.50;;;14.83;;
15699;SDS011;7950;42.744;23.174;2022-07-10T02:06:55;15.10;;;13.57;;
15699;SDS011;7950;42.744;23.174;2022-07-10T02:09:24;16.10;;;14.40;;
15699;SDS011;7950;42.744;23.174;2022-07-10T02:11:53;16.40;;;14.80;;
15699;SDS011;7950;42.744;23.174;2022-07-10T02:14:21;16.80;;;15.13;;
15699;SDS011;7950;42.744;23.174;2022-07-10T02:16:50;16.67;;;14.97;;
15699;SDS011;7950;42.744;23.174;2022-07-10T02:19:19;16.97;;;15.27;;
15699;SDS011;7950;42.744;23.174;2022-07-10T02:21:47;16.73;;;15.00;;
15699;SDS011;7950;42.744;23.174;2022-07-10T02:24:18;17.63;;;14.40;;
15699;SDS011;7950;42.744;23.174;2022-07-10T02:26:46;16.10;;;14.23;;
15699;SDS011;7950;42.744;23.174;2022-07-10T02:29:16;15.47;;;13.87;;
15699;SDS011;7950;42.744;23.174;2022-07-10T02:31:45;15.47;;;13.37;;
15699;SDS011;7950;42.744;23.174;2022-07-10T02:34:14;16.27;;;14.77;;
15699;SDS011;7950;42.744;23.174;2022-07-10T02:36:58;17.23;;;13.97;;
15699;SDS011;7950;42.744;23.174;2022-07-10T02:39:28;14.63;;;13.23;;
15699;SDS011;7950;42.744;23.174;2022-07-10T02:41:57;16.40;;;13.57;;
15699;SDS011;7950;42.744;23.174;2022-07-10T02:44:26;15.37;;;13.60;;
15699;SDS011;7950;42.744;23.174;2022-07-10T02:46:56;15.73;;;13.57;;
15699;SDS011;7950;42.744;23.174;2022-07-10T02:49:25;15.47;;;13.83;;
15699;SDS011;7950;42.744;23.174;2022-07-10T02:51:53;15.70;;;14.27;;
15699;SDS011;7950;42.744;23.174;2022-07-10T02:54:22;14.10;;;12.70;;
15699;SDS011;7950;42.744;23.174;2022-07-10T02:56:52;16.63;;;14.27;;
15699;SDS011;7950;42.744;23.174;2022-07-10T02:59:21;14.70;;;13.20;;
15699;SDS011;7950;42.744;23.174;2022-07-10T03:01:50;16.23;;;14.23;;
15699;SDS011;7950;42.744;23.174;2022-07-10T03:04:18;16.43;;;14.13;;
15699;SDS011;7950;42.744;23.174;2022-07-10T03:06:47;14.50;;;13.10;;
15699;SDS011;7950;42.744;23.174;2022-07-10T03:09:16;15.80;;;14.30;;
15699;SDS011;7950;42.744;23.174;2022-07-10T03:11:45;15.73;;;14.23;;
15699;SDS011;7950;42.744;23.174;2022-07-10T03:14:15;16.17;;;13.90;;
15699;SDS011;7950;42.744;23.174;2022-07-10T03:16:43;14.10;;;12.63;;
15699;SDS011;7950;42.744;23.174;2022-07-10T03:19:12;14.30;;;13.00;;
15699;SDS011;7950;42.744;23.174;2022-07-10T03:21:41;14.13;;;12.73;;
15699;SDS011;7950;42.744;23.174;2022-07-10T03:24:11;14.10;;;12.87;;
15699;SDS011;7950;42.744;23.174;2022-07-10T03:26:40;14.87;;;12.77;;
15699;SDS011;7950;42.744;23.174;2022-07-10T03:29:08;15.47;;;13.87;;
15699;SDS011;7950;42.744;23.174;2022-07-10T03:31:38;15.00;;;12.70;;
15699;SDS011;7950;42.744;23.174;2022-07-10T03:34:07;14.23;;;12.83;;
15699;SDS011;7950;42.744;23.174;2022-07-10T03:36:46;14.13;;;12.47;;
15699;SDS011;7950;42.744;23.174;2022-07-10T03:39:15;13.40;;;12.10;;
15699;SDS011;7950;42.744;23.174;2022-07-10T03:41:43;14.60;;;13.20;;
15699;SDS011;7950;42.744;23.174;2022-07-10T03:44:12;13.00;;;11.73;;
15699;SDS011;7950;42.744;23.174;2022-07-10T03:46:42;12.63;;;11.43;;
15699;SDS011;7950;42.744;23.174;2022-07-10T03:49:11;13.50;;;12.23;;
15699;SDS011;7950;42.744;23.174;2022-07-10T03:51:39;14.00;;;12.57;;
15699;SDS011;7950;42.744;23.174;2022-07-10T03:54:09;13.60;;;12.30;;
15699;SDS011;7950;42.744;23.174;2022-07-10T03:56:37;14.17;;;12.47;;
15699;SDS011;7950;42.744;23.174;2022-07-10T03:59:23;13.23;;;12.00;;
15699;SDS011;7950;42.744;23.174;2022-07-10T04:01:53;13.63;;;12.17;;
15699;SDS011;7950;42.744;23.174;2022-07-10T04:04:22;13.43;;;11.43;;
15699;SDS011;7950;42.744;23.174;2022-07-10T04:06:51;13.53;;;12.33;;
15699;SDS011;7950;42.744;23.174;2022-07-10T04:09:20;12.43;;;11.33;;
15699;SDS011;7950;42.744;23.174;2022-07-10T04:11:49;12.40;;;11.20;;
15699;SDS011;7950;42.744;23.174;2022-07-10T04:14:17;12.50;;;11.40;;
15699;SDS011;7950;42.744;23.174;2022-07-10T04:16:46;12.87;;;11.57;;
15699;SDS011;7950;42.744;23.174;2022-07-10T04:19:17;12.97;;;11.77;;
15699;SDS011;7950;42.744;23.174;2022-07-10T04:21:48;12.40;;;11.30;;
15699;SDS011;7950;42.744;23.174;2022-07-10T04:24:17;13.47;;;12.07;;
15699;SDS011;7950;42.744;23.174;2022-07-10T04:26:45;12.73;;;11.33;;
15699;SDS011;7950;42.744;23.174;2022-07-10T04:32:09;13.20;;;11.90;;
15699;SDS011;7950;42.744;23.174;2022-07-10T04:34:39;14.03;;;12.73;;
15699;SDS011;7950;42.744;23.174;2022-07-10T04:37:08;12.30;;;11.10;;
15699;SDS011;7950;42.744;23.174;2022-07-10T04:39:38;13.30;;;12.00;;
15699;SDS011;7950;42.744;23.174;2022-07-10T04:42:08;12.20;;;11.00;;
15699;SDS011;7950;42.744;23.174;2022-07-10T04:44:37;11.90;;;10.80;;
15699;SDS011;7950;42.744;23.174;2022-07-10T04:57:54;12.43;;;10.50;;
15699;SDS011;7950;42.744;23.174;2022-07-10T05:00:23;9.97;;;9.17;;
15699;SDS011;7950;42.744;23.174;2022-07-10T05:02:52;10.83;;;9.73;;
15699;SDS011;7950;42.744;23.174;2022-07-10T05:05:21;11.00;;;10.10;;
15699;SDS011;7950;42.744;23.174;2022-07-10T05:07:49;11.80;;;10.60;;
15699;SDS011;7950;42.744;23.174;2022-07-10T05:10:18;10.93;;;9.97;;
15699;SDS011;7950;42.744;23.174;2022-07-10T05:12:47;10.47;;;9.60;;
15699;SDS011;7950;42.744;23.174;2022-07-10T05:15:17;10.47;;;9.53;;
15699;SDS011;7950;42.744;23.174;2022-07-10T05:17:45;10.27;;;9.37;;
15699;SDS011;7950;42.744;23.174;2022-07-10T05:20:14;11.07;;;9.93;;
15699;SDS011;7950;42.744;23.174;2022-07-10T05:22:43;9.60;;;8.70;;
15699;SDS011;7950;42.744;23.174;2022-07-10T05:25:11;9.00;;;8.17;;
15699;SDS011;7950;42.744;23.174;2022-07-10T05:27:40;10.10;;;8.40;;
15699;SDS011;7950;42.744;23.174;2022-07-10T05:30:12;9.10;;;8.10;;
15699;SDS011;7950;42.744;23.174;2022-07-10T05:32:45;10.43;;;9.50;;
15699;SDS011;7950;42.744;23.174;2022-07-10T05:35:14;10.20;;;9.10;;
15699;SDS011;7950;42.744;23.174;2022-07-10T05:37:43;9.70;;;8.80;;
15699;SDS011;7950;42.744;23.174;2022-07-10T05:40:12;8.80;;;8.00;;
15699;SDS011;7950;42.744;23.174;2022-07-10T05:42:40;8.97;;;8.07;;
15699;SDS011;7950;42.744;23.174;2022-07-10T05:45:10;9.63;;;8.70;;
15699;SDS011;7950;42.744;23.174;2022-07-10T05:47:39;9.40;;;8.33;;
15699;SDS011;7950;42.744;23.174;2022-07-10T05:50:09;10.83;;;9.70;;
15699;SDS011;7950;42.744;23.174;2022-07-10T05:52:38;9.67;;;8.67;;
15699;SDS011;7950;42.744;23.174;2022-07-10T06:01:22;8.03;;;7.33;;
15699;SDS011;7950;42.744;23.174;2022-07-10T06:03:50;8.23;;;7.43;;
15699;SDS011;7950;42.744;23.174;2022-07-10T06:06:21;8.63;;;7.40;;
15699;SDS011;7950;42.744;23.174;2022-07-10T06:08:49;7.47;;;6.87;;
15699;SDS011;7950;42.744;23.174;2022-07-10T06:11:18;7.60;;;6.90;;
15699;SDS011;7950;42.744;23.174;2022-07-10T06:13:46;7.60;;;6.87;;
15699;SDS011;7950;42.744;23.174;2022-07-10T06:16:15;7.60;;;6.90;;
15699;SDS011;7950;42.744;23.174;2022-07-10T06:18:44;7.33;;;6.57;;
15699;SDS011;7950;42.744;23.174;2022-07-10T06:21:13;8.13;;;5.70;;
15699;SDS011;7950;42.744;23.174;2022-07-10T06:23:43;6.90;;;6.20;;
15699;SDS011;7950;42.744;23.174;2022-07-10T06:26:12;7.10;;;6.30;;
15699;SDS011;7950;42.744;23.174;2022-07-10T06:28:40;7.53;;;5.90;;
15699;SDS011;7950;42.744;23.174;2022-07-10T06:31:09;7.17;;;5.70;;
15699;SDS011;7950;42.744;23.174;2022-07-10T06:33:38;6.53;;;6.00;;
15699;SDS011;7950;42.744;23.174;2022-07-10T06:36:07;8.23;;;5.90;;
15699;SDS011;7950;42.744;23.174;2022-07-10T06:38:36;5.83;;;5.30;;
15699;SDS011;7950;42.744;23.174;2022-07-10T06:41:06;6.87;;;6.03;;
15699;SDS011;7950;42.744;23.174;2022-07-10T06:43:34;6.17;;;5.57;;
15699;SDS011;7950;42.744;23.174;2022-07-10T06:46:03;7.03;;;5.87;;
15699;SDS011;7950;42.744;23.174;2022-07-10T06:48:32;6.47;;;5.70;;
15699;SDS011;7950;42.744;23.174;2022-07-10T06:51:04;7.67;;;6.20;;
15699;SDS011;7950;42.744;23.174;2022-07-10T06:53:41;7.37;;;6.10;;
15699;SDS011;7950;42.744;23.174;2022-07-10T06:56:11;7.30;;;5.53;;
15699;SDS011;7950;42.744;23.174;2022-07-10T06:58:42;6.50;;;5.90;;
15699;SDS011;7950;42.744;23.174;2022-07-10T07:01:11;7.40;;;5.63;;
15699;SDS011;7950;42.744;23.174;2022-07-10T07:03:40;7.50;;;5.43;;
15699;SDS011;7950;42.744;23.174;2022-07-10T07:06:11;6.03;;;5.23;;
15699;SDS011;7950;42.744;23.174;2022-07-10T07:08:39;6.67;;;5.67;;
15699;SDS011;7950;42.744;23.174;2022-07-10T07:11:09;5.87;;;5.37;;
15699;SDS011;7950;42.744;23.174;2022-07-10T07:13:39;6.00;;;5.50;;
15699;SDS011;7950;42.744;23.174;2022-07-10T07:16:07;5.43;;;4.77;;
15699;SDS011;7950;42.744;23.174;2022-07-10T07:18:37;6.77;;;5.37;;
15699;SDS011;7950;42.744;23.174;2022-07-10T07:21:14;8.60;;;5.10;;
15699;SDS011;7950;42.744;23.174;2022-07-10T07:24:25;7.00;;;5.00;;
15699;SDS011;7950;42.744;23.174;2022-07-10T07:26:55;5.43;;;4.70;;
15699;SDS011;7950;42.744;23.174;2022-07-10T07:29:24;5.37;;;4.87;;
15699;SDS011;7950;42.744;23.174;2022-07-10T07:31:52;5.70;;;4.40;;
15699;SDS011;7950;42.744;23.174;2022-07-10T07:34:22;4.80;;;4.40;;
15699;SDS011;7950;42.744;23.174;2022-07-10T07:36:50;6.20;;;4.90;;
15699;SDS011;7950;42.744;23.174;2022-07-10T07:39:19;5.43;;;4.77;;
15699;SDS011;7950;42.744;23.174;2022-07-10T07:41:47;4.43;;;3.90;;
15699;SDS011;7950;42.744;23.174;2022-07-10T07:44:17;5.47;;;4.13;;
15699;SDS011;7950;42.744;23.174;2022-07-10T07:46:52;4.53;;;4.17;;
15699;SDS011;7950;42.744;23.174;2022-07-10T07:49:21;6.80;;;4.10;;
15699;SDS011;7950;42.744;23.174;2022-07-10T07:51:49;5.13;;;3.97;;
15699;SDS011;7950;42.744;23.174;2022-07-10T07:54:18;4.80;;;3.97;;
15699;SDS011;7950;42.744;23.174;2022-07-10T07:56:46;4.57;;;3.97;;
15699;SDS011;7950;42.744;23.174;2022-07-10T07:59:15;4.87;;;3.60;;
15699;SDS011;7950;42.744;23.174;2022-07-10T08:01:45;4.70;;;3.97;;
15699;SDS011;7950;42.744;23.174;2022-07-10T08:04:17;4.57;;;3.83;;
15699;SDS011;7950;42.744;23.174;2022-07-10T08:06:46;6.47;;;4.40;;
15699;SDS011;7950;42.744;23.174;2022-07-10T08:09:18;4.17;;;3.80;;
15699;SDS011;7950;42.744;23.174;2022-07-10T08:11:47;4.50;;;4.10;;
15699;SDS011;7950;42.744;23.174;2022-07-10T08:14:17;4.97;;;3.60;;
15699;SDS011;7950;42.744;23.174;2022-07-10T08:16:46;5.53;;;4.00;;
15699;SDS011;7950;42.744;23.174;2022-07-10T08:19:15;4.43;;;3.90;;
15699;SDS011;7950;42.744;23.174;2022-07-10T08:21:43;4.47;;;3.50;;
15699;SDS011;7950;42.744;23.174;2022-07-10T08:24:12;4.73;;;3.63;;
15699;SDS011;7950;42.744;23.174;2022-07-10T08:26:41;5.30;;;3.63;;
15699;SDS011;7950;42.744;23.174;2022-07-10T08:32:05;3.97;;;3.30;;
15699;SDS011;7950;42.744;23.174;2022-07-10T08:34:36;3.77;;;3.40;;
15699;SDS011;7950;42.744;23.174;2022-07-10T08:37:05;4.10;;;3.33;;
15699;SDS011;7950;42.744;23.174;2022-07-10T08:39:33;4.47;;;3.50;;
15699;SDS011;7950;42.744;23.174;2022-07-10T08:44:58;5.00;;;3.30;;
15699;SDS011;7950;42.744;23.174;2022-07-10T08:47:27;3.70;;;3.23;;
15699;SDS011;7950;42.744;23.174;2022-07-10T08:50:04;5.47;;;3.50;;
15699;SDS011;7950;42.744;23.174;2022-07-10T08:52:42;4.30;;;3.20;;
15699;SDS011;7950;42.744;23.174;2022-07-10T08:55:21;4.60;;;3.53;;
15699;SDS011;7950;42.744;23.174;2022-07-10T08:57:53;4.10;;;3.70;;
15699;SDS011;7950;42.744;23.174;2022-07-10T09:00:32;3.33;;;3.03;;
15699;SDS011;7950;42.744;23.174;2022-07-10T09:03:00;3.80;;;3.03;;
15699;SDS011;7950;42.744;23.174;2022-07-10T09:05:29;6.33;;;3.10;;
15699;SDS011;7950;42.744;23.174;2022-07-10T09:07:58;5.33;;;3.37;;
15699;SDS011;7950;42.744;23.174;2022-07-10T09:10:26;3.20;;;3.00;;
15699;SDS011;7950;42.744;23.174;2022-07-10T09:15:52;3.40;;;3.10;;
15699;SDS011;7950;42.744;23.174;2022-07-10T09:18:24;3.47;;;3.17;;
15699;SDS011;7950;42.744;23.174;2022-07-10T09:20:53;3.43;;;2.87;;
15699;SDS011;7950;42.744;23.174;2022-07-10T09:23:22;4.37;;;3.00;;
15699;SDS011;7950;42.744;23.174;2022-07-10T09:25:52;4.77;;;2.67;;
15699;SDS011;7950;42.744;23.174;2022-07-10T09:28:21;3.70;;;3.40;;
15699;SDS011;7950;42.744;23.174;2022-07-10T09:30:52;3.40;;;3.00;;
15699;SDS011;7950;42.744;23.174;2022-07-10T09:33:22;7.53;;;3.50;;
15699;SDS011;7950;42.744;23.174;2022-07-10T09:36:00;3.70;;;3.00;;
15699;SDS011;7950;42.744;23.174;2022-07-10T09:38:49;4.30;;;3.23;;
15699;SDS011;7950;42.744;23.174;2022-07-10T09:41:27;5.60;;;3.23;;
15699;SDS011;7950;42.744;23.174;2022-07-10T09:43:57;3.40;;;2.70;;
15699;SDS011;7950;42.744;23.174;2022-07-10T09:46:32;3.27;;;2.80;;
15699;SDS011;7950;42.744;23.174;2022-07-10T09:49:16;2.87;;;2.67;;
15699;SDS011;7950;42.744;23.174;2022-07-10T09:51:45;5.47;;;2.80;;
15699;SDS011;7950;42.744;23.174;2022-07-10T09:54:15;4.80;;;3.00;;
15699;SDS011;7950;42.744;23.174;2022-07-10T09:56:45;3.53;;;2.63;;
15699;SDS011;7950;42.744;23.174;2022-07-10T09:59:18;3.33;;;3.00;;
15699;SDS011;7950;42.744;23.174;2022-07-10T10:04:57;3.50;;;2.70;;
15699;SDS011;7950;42.744;23.174;2022-07-10T10:07:26;4.33;;;2.90;;
15699;SDS011;7950;42.744;23.174;2022-07-10T10:09:55;4.20;;;2.87;;
15699;SDS011;7950;42.744;23.174;2022-07-10T10:12:28;3.10;;;2.80;;
15699;SDS011;7950;42.744;23.174;2022-07-10T10:15:04;4.10;;;2.53;;
15699;SDS011;7950;42.744;23.174;2022-07-10T10:17:36;4.33;;;2.80;;
15699;SDS011;7950;42.744;23.174;2022-07-10T10:20:08;3.20;;;2.90;;
15699;SDS011;7950;42.744;23.174;2022-07-10T10:22:56;3.23;;;2.93;;
15699;SDS011;7950;42.744;23.174;2022-07-10T10:25:28;3.73;;;2.90;;
15699;SDS011;7950;42.744;23.174;2022-07-10T10:28:02;3.33;;;2.80;;
15699;SDS011;7950;42.744;23.174;2022-07-10T10:30:42;4.10;;;2.83;;
15699;SDS011;7950;42.744;23.174;2022-07-10T10:36:23;2.87;;;2.53;;
15699;SDS011;7950;42.744;23.174;2022-07-10T10:39:15;2.80;;;2.60;;
15699;SDS011;7950;42.744;23.174;2022-07-10T10:41:49;2.73;;;2.53;;
15699;SDS011;7950;42.744;23.174;2022-07-10T10:44:24;3.93;;;2.60;;
15699;SDS011;7950;42.744;23.174;2022-07-10T10:47:05;6.40;;;2.83;;
15699;SDS011;7950;42.744;23.174;2022-07-10T10:49:53;2.90;;;2.70;;
15699;SDS011;7950;42.744;23.174;2022-07-10T10:52:28;5.37;;;2.73;;
15699;SDS011;7950;42.744;23.174;2022-07-10T10:55:04;5.23;;;2.40;;
15699;SDS011;7950;42.744;23.174;2022-07-10T10:57:38;3.57;;;2.70;;
15699;SDS011;7950;42.744;23.174;2022-07-10T11:05:58;9.57;;;2.90;;
15699;SDS011;7950;42.744;23.174;2022-07-10T11:08:35;5.40;;;3.00;;
15699;SDS011;7950;42.744;23.174;2022-07-10T11:14:09;2.67;;;2.47;;
15699;SDS011;7950;42.744;23.174;2022-07-10T11:16:47;2.73;;;2.43;;
15699;SDS011;7950;42.744;23.174;2022-07-10T11:19:20;2.83;;;2.53;;
15699;SDS011;7950;42.744;23.174;2022-07-10T11:21:58;3.30;;;2.50;;
15699;SDS011;7950;42.744;23.174;2022-07-10T11:24:42;3.20;;;2.47;;
15699;SDS011;7950;42.744;23.174;2022-07-10T11:30:48;5.47;;;2.50;;
15699;SDS011;7950;42.744;23.174;2022-07-10T11:33:19;4.03;;;2.77;;
15699;SDS011;7950;42.744;23.174;2022-07-10T11:35:50;5.13;;;2.50;;
15699;SDS011;7950;42.744;23.174;2022-07-10T11:38:22;6.13;;;2.83;;
15699;SDS011;7950;42.744;23.174;2022-07-10T11:40:52;2.50;;;2.30;;
15699;SDS011;7950;42.744;23.174;2022-07-10T11:43:21;5.00;;;2.23;;
15699;SDS011;7950;42.744;23.174;2022-07-10T11:45:51;2.40;;;2.20;;
15699;SDS011;7950;42.744;23.174;2022-07-10T11:48:21;4.27;;;2.30;;
15699;SDS011;7950;42.744;23.174;2022-07-10T11:50:52;3.97;;;2.37;;
15699;SDS011;7950;42.744;23.174;2022-07-10T11:53:26;5.37;;;2.17;;
15699;SDS011;7950;42.744;23.174;2022-07-10T11:55:55;3.50;;;2.20;;
15699;SDS011;7950;42.744;23.174;2022-07-10T11:58:23;3.83;;;2.30;;
15699;SDS011;7950;42.744;23.174;2022-07-10T12:03:52;2.43;;;2.23;;
15699;SDS011;7950;42.744;23.174;2022-07-10T12:06:26;3.10;;;2.23;;
15699;SDS011;7950;42.744;23.174;2022-07-10T12:08:59;2.50;;;2.27;;
15699;SDS011;7950;42.744;23.174;2022-07-10T12:11:31;2.13;;;1.93;;
15699;SDS011;7950;42.744;23.174;2022-07-10T12:14:10;3.83;;;2.00;;
15699;SDS011;7950;42.744;23.174;2022-07-10T12:16:41;2.70;;;2.10;;
15699;SDS011;7950;42.744;23.174;2022-07-10T12:19:12;1.83;;;1.73;;
15699;SDS011;7950;42.744;23.174;2022-07-10T12:21:43;3.87;;;1.90;;
15699;SDS011;7950;42.744;23.174;2022-07-10T12:24:18;4.77;;;2.00;;
15699;SDS011;7950;42.744;23.174;2022-07-10T12:26:48;1.97;;;1.73;;
15699;SDS011;7950;42.744;23.174;2022-07-10T12:29:19;2.70;;;1.77;;
15699;SDS011;7950;42.744;23.174;2022-07-10T12:31:50;2.53;;;1.67;;
15699;SDS011;7950;42.744;23.174;2022-07-10T12:34:32;1.80;;;1.70;;
15699;SDS011;7950;42.744;23.174;2022-07-10T12:37:06;1.70;;;1.60;;
15699;SDS011;7950;42.744;23.174;2022-07-10T12:39:47;1.90;;;1.60;;
15699;SDS011;7950;42.744;23.174;2022-07-10T12:42:24;1.50;;;1.40;;
15699;SDS011;7950;42.744;23.174;2022-07-10T12:44:54;2.07;;;1.40;;
15699;SDS011;7950;42.744;23.174;2022-07-10T12:47:42;2.80;;;2.07;;
15699;SDS011;7950;42.744;23.174;2022-07-10T12:50:13;1.70;;;1.60;;
15699;SDS011;7950;42.744;23.174;2022-07-10T12:52:43;1.87;;;1.67;;
15699;SDS011;7950;42.744;23.174;2022-07-10T12:55:14;1.60;;;1.50;;
15699;SDS011;7950;42.744;23.174;2022-07-10T12:57:46;2.50;;;1.50;;
15699;SDS011;7950;42.744;23.174;2022-07-10T13:00:20;1.80;;;1.70;;
15699;SDS011;7950;42.744;23.174;2022-07-10T13:02:56;2.57;;;1.60;;
15699;SDS011;7950;42.744;23.174;2022-07-10T13:08:22;3.50;;;1.60;;
15699;SDS011;7950;42.744;23.174;2022-07-10T13:10:53;1.63;;;1.53;;
15699;SDS011;7950;42.744;23.174;2022-07-10T13:16:15;4.47;;;1.50;;
15699;SDS011;7950;42.744;23.174;2022-07-10T13:18:44;2.13;;;1.60;;
15699;SDS011;7950;42.744;23.174;2022-07-10T13:21:13;3.10;;;1.60;;
15699;SDS011;7950;42.744;23.174;2022-07-10T13:23:42;1.77;;;1.67;;
15699;SDS011;7950;42.744;23.174;2022-07-10T13:26:12;2.40;;;1.40;;
15699;SDS011;7950;42.744;23.174;2022-07-10T13:28:41;2.73;;;1.60;;
15699;SDS011;7950;42.744;23.174;2022-07-10T13:31:09;4.93;;;1.40;;
15699;SDS011;7950;42.744;23.174;2022-07-10T13:33:45;2.57;;;1.60;;
15699;SDS011;7950;42.744;23.174;2022-07-10T13:36:13;2.90;;;1.60;;
15699;SDS011;7950;42.744;23.174;2022-07-10T13:38:42;3.80;;;1.60;;
15699;SDS011;7950;42.744;23.174;2022-07-10T13:41:14;5.67;;;1.60;;
15699;SDS011;7950;42.744;23.174;2022-07-10T13:43:43;1.47;;;1.20;;
15699;SDS011;7950;42.744;23.174;2022-07-10T13:46:12;2.17;;;1.53;;
15699;SDS011;7950;42.744;23.174;2022-07-10T13:48:41;1.50;;;1.40;;
15699;SDS011;7950;42.744;23.174;2022-07-10T13:51:10;1.90;;;1.60;;
15699;SDS011;7950;42.744;23.174;2022-07-10T13:53:39;2.13;;;1.40;;
15699;SDS011;7950;42.744;23.174;2022-07-10T13:56:08;2.20;;;1.77;;
15699;SDS011;7950;42.744;23.174;2022-07-10T13:58:43;3.93;;;1.80;;
15699;SDS011;7950;42.744;23.174;2022-07-10T14:01:12;3.67;;;1.40;;
15699;SDS011;7950;42.744;23.174;2022-07-10T14:03:40;3.23;;;1.53;;
15699;SDS011;7950;42.744;23.174;2022-07-10T14:06:09;1.60;;;1.50;;
15699;SDS011;7950;42.744;23.174;2022-07-10T14:08:38;2.77;;;1.57;;
15699;SDS011;7950;42.744;23.174;2022-07-10T14:11:07;2.43;;;1.70;;
15699;SDS011;7950;42.744;23.174;2022-07-10T14:13:36;1.60;;;1.50;;
15699;SDS011;7950;42.744;23.174;2022-07-10T14:16:06;1.73;;;1.63;;
15699;SDS011;7950;42.744;23.174;2022-07-10T14:18:35;2.50;;;1.60;;
15699;SDS011;7950;42.744;23.174;2022-07-10T14:21:06;1.53;;;1.43;;
15699;SDS011;7950;42.744;23.174;2022-07-10T14:23:36;2.77;;;1.83;;
15699;SDS011;7950;42.744;23.174;2022-07-10T14:26:08;2.63;;;1.80;;
15699;SDS011;7950;42.744;23.174;2022-07-10T14:28:37;1.73;;;1.50;;
15699;SDS011;7950;42.744;23.174;2022-07-10T14:31:08;3.10;;;1.70;;
15699;SDS011;7950;42.744;23.174;2022-07-10T14:33:37;2.67;;;1.80;;
15699;SDS011;7950;42.744;23.174;2022-07-10T14:36:06;1.90;;;1.80;;
15699;SDS011;7950;42.744;23.174;2022-07-10T14:38:35;3.47;;;1.83;;
15699;SDS011;7950;42.744;23.174;2022-07-10T14:41:04;1.70;;;1.60;;
15699;SDS011;7950;42.744;23.174;2022-07-10T14:43:33;2.10;;;1.50;;
15699;SDS011;7950;42.744;23.174;2022-07-10T14:46:03;1.70;;;1.60;;
15699;SDS011;7950;42.744;23.174;2022-07-10T14:48:33;3.50;;;1.60;;
15699;SDS011;7950;42.744;23.174;2022-07-10T14:51:02;1.83;;;1.70;;
15699;SDS011;7950;42.744;23.174;2022-07-10T14:53:31;1.70;;;1.60;;
15699;SDS011;7950;42.744;23.174;2022-07-10T14:56:02;1.63;;;1.53;;
15699;SDS011;7950;42.744;23.174;2022-07-10T14:58:32;2.10;;;1.70;;
15699;SDS011;7950;42.744;23.174;2022-07-10T15:01:21;2.67;;;1.80;;
15699;SDS011;7950;42.744;23.174;2022-07-10T15:07:00;3.07;;;1.80;;
15699;SDS011;7950;42.744;23.174;2022-07-10T15:09:28;2.00;;;1.70;;
15699;SDS011;7950;42.744;23.174;2022-07-10T15:11:58;2.17;;;1.80;;
15699;SDS011;7950;42.744;23.174;2022-07-10T15:14:27;1.87;;;1.77;;
15699;SDS011;7950;42.744;23.174;2022-07-10T15:16:55;4.97;;;1.97;;
15699;SDS011;7950;42.744;23.174;2022-07-10T15:19:25;1.97;;;1.77;;
15699;SDS011;7950;42.744;23.174;2022-07-10T15:21:54;1.70;;;1.60;;
15699;SDS011;7950;42.744;23.174;2022-07-10T15:27:17;1.67;;;1.50;;
15699;SDS011;7950;42.744;23.174;2022-07-10T15:29:45;5.23;;;1.80;;
15699;SDS011;7950;42.744;23.174;2022-07-10T15:32:14;3.00;;;1.57;;
15699;SDS011;7950;42.744;23.174;2022-07-10T15:34:44;2.00;;;1.90;;
15699;SDS011;7950;42.744;23.174;2022-07-10T15:37:12;2.43;;;2.23;;
15699;SDS011;7950;42.744;23.174;2022-07-10T15:39:41;2.90;;;2.23;;
15699;SDS011;7950;42.744;23.174;2022-07-10T15:42:10;4.23;;;2.30;;
15699;SDS011;7950;42.744;23.174;2022-07-10T15:44:39;2.30;;;2.13;;
15699;SDS011;7950;42.744;23.174;2022-07-10T15:47:08;3.40;;;2.43;;
15699;SDS011;7950;42.744;23.174;2022-07-10T15:49:38;2.93;;;2.53;;
15699;SDS011;7950;42.744;23.174;2022-07-10T15:52:09;2.90;;;2.40;;
15699;SDS011;7950;42.744;23.174;2022-07-10T15:54:37;2.50;;;2.30;;
15699;SDS011;7950;42.744;23.174;2022-07-10T15:57:08;3.73;;;2.30;;
15699;SDS011;7950;42.744;23.174;2022-07-10T15:59:38;2.93;;;2.73;;
15699;SDS011;7950;42.744;23.174;2022-07-10T16:02:07;4.20;;;3.00;;